createdAt,value
2019-02-18T00:04:17.096Z,29.00
2019-02-18T00:09:12.971Z,21.23
2019-02-18T00:14:08.952Z,23.93
2019-02-18T00:19:04.891Z,23.73
2019-02-18T00:24:00.808Z,23.47
2019-02-18T00:28:56.753Z,24.90
2019-02-18T00:33:52.688Z,23.57
2019-02-18T00:38:48.657Z,21.90
2019-02-18T00:43:44.516Z,22.27
2019-02-18T00:48:40.464Z,21.83
2019-02-18T00:53:36.655Z,21.33
2019-02-18T00:58:32.592Z,21.13
2019-02-18T01:03:28.536Z,21.47
2019-02-18T01:08:24.374Z,21.53
2019-02-18T01:13:21.131Z,22.53
2019-02-18T01:18:17.086Z,20.67
2019-02-18T01:23:12.969Z,18.43
2019-02-18T01:28:08.915Z,22.00
2019-02-18T01:33:04.752Z,28.67
2019-02-18T01:38:00.728Z,23.37
2019-02-18T01:42:56.558Z,24.80
2019-02-18T01:47:52.822Z,22.57
2019-02-18T01:52:48.718Z,23.93
2019-02-18T01:57:44.674Z,26.17
2019-02-18T02:02:40.561Z,22.50
2019-02-18T02:07:36.530Z,26.83
2019-02-18T02:12:32.737Z,21.07
2019-02-18T02:17:28.629Z,22.60
2019-02-18T02:22:24.474Z,19.67
2019-02-18T02:27:20.412Z,20.73
2019-02-18T02:32:16.743Z,19.77
2019-02-18T02:37:12.714Z,21.33
2019-02-18T02:42:08.891Z,19.80
2019-02-18T02:47:04.750Z,20.77
2019-02-18T02:52:00.790Z,22.43
2019-02-18T02:56:56.997Z,21.90
2019-02-18T03:01:53.107Z,22.37
2019-02-18T03:06:49.059Z,23.47
2019-02-18T03:11:45.215Z,23.67
2019-02-18T03:16:41.156Z,23.43
2019-02-18T03:21:37.342Z,20.70
2019-02-18T03:26:34.594Z,19.73
2019-02-18T03:31:33.972Z,20.63
2019-02-18T03:36:29.879Z,15.73
2019-02-18T03:41:25.805Z,21.27
2019-02-18T03:46:21.641Z,25.80
2019-02-18T03:51:17.642Z,20.07
2019-02-18T03:56:13.625Z,19.80
2019-02-18T04:01:09.834Z,18.47
2019-02-18T04:06:05.872Z,17.40
2019-02-18T04:11:02.187Z,21.13
2019-02-18T04:15:58.219Z,23.03
2019-02-18T04:20:57.121Z,19.97
2019-02-18T04:25:53.173Z,19.20
2019-02-18T04:30:49.083Z,19.43
2019-02-18T04:35:45.017Z,19.17
2019-02-18T04:40:40.907Z,18.73
2019-02-18T04:45:36.886Z,18.60
2019-02-18T04:50:32.710Z,20.90
2019-02-18T04:55:30.600Z,21.13
2019-02-18T05:00:29.240Z,47.77
2019-02-18T05:05:30.920Z,46.03
2019-02-18T05:10:26.540Z,41.97
2019-02-18T05:15:27.546Z,38.73
2019-02-18T05:20:30.629Z,27.37
2019-02-18T05:25:26.532Z,24.33
2019-02-18T05:30:22.727Z,25.47
2019-02-18T05:35:22.001Z,23.43
2019-02-18T05:40:17.949Z,21.93
2019-02-18T05:45:16.496Z,22.93
2019-02-18T05:50:12.457Z,23.57
2019-02-18T05:55:10.093Z,24.60
2019-02-18T06:00:07.602Z,25.90
2019-02-18T06:05:03.606Z,26.13
2019-02-18T06:09:59.551Z,25.30
2019-02-18T06:14:56.756Z,26.13
2019-02-18T06:19:52.991Z,26.23
2019-02-18T06:24:51.029Z,24.87
2019-02-18T06:29:47.835Z,25.73
2019-02-18T06:34:43.755Z,24.57
2019-02-18T06:39:41.646Z,27.87
2019-02-18T06:44:46.721Z,22.57
2019-02-18T06:49:42.535Z,27.80
2019-02-18T06:54:38.467Z,22.63
2019-02-18T06:59:40.957Z,25.10
2019-02-18T07:04:55.376Z,23.93
2019-02-18T07:10:01.748Z,25.23
2019-02-18T07:14:57.877Z,25.53
2019-02-18T07:19:53.936Z,23.93
2019-02-18T07:24:51.398Z,26.07
2019-02-18T07:29:47.398Z,23.67
2019-02-18T07:34:43.412Z,23.37
2019-02-18T07:39:42.596Z,22.20
2019-02-18T07:44:40.879Z,25.53
2019-02-18T07:49:39.724Z,21.20
2019-02-18T07:54:35.647Z,20.43
2019-02-18T07:59:34.363Z,21.63
2019-02-18T08:04:33.091Z,21.83
2019-02-18T08:09:34.723Z,24.03
2019-02-18T08:14:32.126Z,21.63
2019-02-18T08:19:28.019Z,21.40
2019-02-18T08:24:23.945Z,22.00
2019-02-18T08:29:27.533Z,21.10
2019-02-18T08:34:23.584Z,24.37
2019-02-18T08:39:19.551Z,24.07
2019-02-18T08:44:15.577Z,33.37
2019-02-18T08:49:11.462Z,27.17
2019-02-18T08:54:07.357Z,23.20
2019-02-18T08:59:04.988Z,26.83
2019-02-18T09:04:01.066Z,24.83
2019-02-18T09:08:58.781Z,24.40
2019-02-18T09:13:54.910Z,22.60
2019-02-18T09:18:50.882Z,21.00
2019-02-18T09:24:10.132Z,23.40
2019-02-18T09:29:08.800Z,21.57
2019-02-18T09:34:04.751Z,21.77
2019-02-18T09:39:01.605Z,22.63
2019-02-18T09:43:57.584Z,26.47
2019-02-18T09:48:53.389Z,23.80
2019-02-18T09:53:49.255Z,21.43
2019-02-18T09:58:45.153Z,22.77
2019-02-18T10:03:43.588Z,22.43
2019-02-18T10:08:41.168Z,24.80
2019-02-18T10:13:36.991Z,21.03
2019-02-18T10:18:32.904Z,24.93
2019-02-18T10:23:30.631Z,23.73
2019-02-18T10:28:26.506Z,26.20
2019-02-18T10:33:22.314Z,26.00
2019-02-18T10:38:19.397Z,23.50
2019-02-18T10:43:15.155Z,26.93
2019-02-18T10:48:10.950Z,21.67
2019-02-18T10:53:07.207Z,25.77
2019-02-18T10:58:03.179Z,21.57
2019-02-18T11:02:58.939Z,25.43
2019-02-18T11:07:54.763Z,22.90
2019-02-18T11:12:50.648Z,22.73
2019-02-18T11:17:46.511Z,23.70
2019-02-18T11:22:42.264Z,22.00
2019-02-18T11:27:38.066Z,22.60
2019-02-18T11:32:34.993Z,21.97
2019-02-18T11:37:30.812Z,20.43
2019-02-18T11:42:26.840Z,23.07
2019-02-18T11:47:22.630Z,21.30
2019-02-18T11:52:18.528Z,20.03
2019-02-18T11:57:14.427Z,21.80
2019-02-18T12:02:10.559Z,21.13
2019-02-18T12:07:06.756Z,22.40
2019-02-18T12:12:02.572Z,19.50
2019-02-18T12:16:58.498Z,18.33
2019-02-18T12:21:54.491Z,21.03
2019-02-18T12:26:50.365Z,20.40
2019-02-18T12:31:46.196Z,20.47
2019-02-18T12:36:42.210Z,19.70
2019-02-18T12:41:47.963Z,20.90
2019-02-18T12:46:35.958Z,21.63
2019-02-18T12:51:31.803Z,20.77
2019-02-18T12:56:27.840Z,18.57
2019-02-18T13:01:23.722Z,20.70
2019-02-18T13:06:19.615Z,21.97
2019-02-18T13:11:17.041Z,21.13
2019-02-18T13:16:12.875Z,18.57
2019-02-18T13:21:09.945Z,19.13
2019-02-18T13:26:05.897Z,19.27
2019-02-18T13:31:01.847Z,18.33
2019-02-18T13:35:58.297Z,19.07
2019-02-18T13:40:54.551Z,18.10
2019-02-18T13:45:50.559Z,16.77
2019-02-18T13:50:46.371Z,18.80
2019-02-18T13:55:42.406Z,17.63
2019-02-18T14:00:38.829Z,18.17
2019-02-18T14:05:40.099Z,18.03
2019-02-18T14:10:35.984Z,17.37
2019-02-18T14:15:32.030Z,18.10
2019-02-18T14:20:27.888Z,16.40
2019-02-18T14:25:24.034Z,20.00
2019-02-18T14:30:20.147Z,18.13
2019-02-18T14:35:17.663Z,15.37
2019-02-18T14:40:15.754Z,15.37
2019-02-18T14:45:12.269Z,17.00
2019-02-18T14:50:08.284Z,14.87
2019-02-18T14:55:04.510Z,19.43
2019-02-18T15:00:03.163Z,15.07
2019-02-18T15:04:59.575Z,19.33
2019-02-18T15:09:58.125Z,16.47
2019-02-18T15:14:54.046Z,14.70
2019-02-18T15:19:50.067Z,14.33
2019-02-18T15:24:45.919Z,14.23
2019-02-18T15:29:42.090Z,15.40
2019-02-18T15:34:38.065Z,16.60
2019-02-18T15:39:33.888Z,14.80
2019-02-18T15:44:29.855Z,14.90
2019-02-18T15:49:25.778Z,14.63
2019-02-18T15:54:21.687Z,16.37
2019-02-18T15:59:17.434Z,15.70
2019-02-18T16:04:13.386Z,16.03
2019-02-18T16:09:10.411Z,16.80
2019-02-18T16:14:06.388Z,17.07
2019-02-18T16:19:02.667Z,16.40
2019-02-18T16:23:58.480Z,18.03
2019-02-18T16:28:54.362Z,17.83
2019-02-18T16:33:50.248Z,16.50
2019-02-18T16:38:46.246Z,17.73
2019-02-18T16:43:42.007Z,19.20
2019-02-18T16:48:38.017Z,20.57
2019-02-18T16:53:34.004Z,16.57
2019-02-18T16:58:29.970Z,18.73
2019-02-18T17:03:25.961Z,19.70
2019-02-18T17:08:22.181Z,15.73
2019-02-18T17:13:18.185Z,20.57
2019-02-18T17:18:14.599Z,20.77
2019-02-18T17:23:12.131Z,16.33
2019-02-18T17:28:08.157Z,19.17
2019-02-18T17:33:11.335Z,19.27
2019-02-18T17:38:07.384Z,18.67
2019-02-18T17:43:03.379Z,19.50
2019-02-18T17:47:59.423Z,16.63
2019-02-18T17:52:55.349Z,19.00
2019-02-18T17:58:31.372Z,17.53
2019-02-18T18:03:40.650Z,17.10
2019-02-18T18:08:36.587Z,18.37
2019-02-18T18:13:49.842Z,17.00
2019-02-18T18:18:48.359Z,17.80
2019-02-18T18:23:45.567Z,21.17
2019-02-18T18:28:41.460Z,18.13
2019-02-18T18:33:37.327Z,24.43
2019-02-18T18:38:33.570Z,19.07
2019-02-18T18:43:34.457Z,23.57
2019-02-18T18:48:30.414Z,20.93
2019-02-18T18:53:28.547Z,20.17
2019-02-18T18:58:24.203Z,19.20
2019-02-18T19:03:20.105Z,18.07
2019-02-18T19:08:15.990Z,18.20
2019-02-18T19:13:14.178Z,22.50
2019-02-18T19:18:14.958Z,19.27
2019-02-18T19:23:11.697Z,22.00
2019-02-18T19:28:07.932Z,24.20
2019-02-18T19:33:04.376Z,25.43
2019-02-18T19:38:02.379Z,26.00
2019-02-18T19:43:00.545Z,30.43
2019-02-18T19:47:56.497Z,37.93
2019-02-18T19:52:55.957Z,24.90
2019-02-18T19:57:51.871Z,23.73
2019-02-18T20:02:47.794Z,23.30
2019-02-18T20:07:54.976Z,21.73
2019-02-18T20:12:50.945Z,22.73
2019-02-18T20:17:47.002Z,21.00
2019-02-18T20:22:43.600Z,23.00
2019-02-18T20:27:41.084Z,21.20
2019-02-18T20:32:39.317Z,24.83
2019-02-18T20:37:41.645Z,22.83
2019-02-18T20:42:50.088Z,23.47
2019-02-18T20:48:17.495Z,21.83
2019-02-18T20:53:26.038Z,20.23
2019-02-18T20:58:28.075Z,25.23
2019-02-18T21:03:31.713Z,22.37
2019-02-18T21:08:50.791Z,21.67
2019-02-18T21:14:00.106Z,23.73
2019-02-18T21:18:58.367Z,26.57
2019-02-18T21:23:56.250Z,25.10
2019-02-18T21:29:04.665Z,21.90
2019-02-18T21:34:09.329Z,26.00
2019-02-18T21:39:10.424Z,23.83
2019-02-18T21:44:09.648Z,22.07
2019-02-18T21:49:12.870Z,25.20
2019-02-18T21:54:09.750Z,24.97
2019-02-18T21:59:05.709Z,23.17
2019-02-18T22:04:01.793Z,23.93
2019-02-18T22:09:00.487Z,25.10
2019-02-18T22:14:01.486Z,23.30
2019-02-18T22:18:59.838Z,20.90
2019-02-18T22:23:55.885Z,20.80
2019-02-18T22:28:53.797Z,21.37
2019-02-18T22:33:51.223Z,25.00
2019-02-18T22:38:49.209Z,20.70
2019-02-18T22:43:46.546Z,22.37
2019-02-18T22:48:42.438Z,24.37
2019-02-18T22:53:38.477Z,20.33
2019-02-18T22:58:35.576Z,22.63
2019-02-18T23:03:34.905Z,22.00
2019-02-18T23:08:30.715Z,20.73
2019-02-18T23:13:46.255Z,21.57
2019-02-18T23:18:43.415Z,24.00
2019-02-18T23:23:39.217Z,23.53
2019-02-18T23:28:35.021Z,24.53
2019-02-18T23:33:31.002Z,27.57
2019-02-18T23:38:26.890Z,24.83
2019-02-18T23:43:22.942Z,22.57
2019-02-18T23:48:19.152Z,24.23
2019-02-18T23:53:23.005Z,23.87
2019-02-18T23:58:24.869Z,23.67
